Hlavní strana
METAR-TAF:

METAR-TAF

Letiště :

Machačkala, Rusko

zeměpisná šířka: 42-49-01N, zeměpisná délka: 047-39-08E, výška: 4 m

Aktuální stav počasí

Zpráva byla vytvořena před 11 minutami, v 04:00 UTC
Jihojihovýchodní vítr 8 kt
Teplota 8°C
Vlhkost vzduchu 81%
Tlak 1030 hPa
Viditelnost 10 km a více

METAR: URML 180400Z 16004MPS 9999 NSC 08/05 Q1030 R14/01//70 NOSIG RMK QFE772/1030

Čas: 07:11 (04:11 UTC)

Předpověď počasí

Zpráva byla vytvořena před 2 hodinami a 11 minutami, v 02:00 UTC
Předpověď platná od 18 v 03 UTC do 18 v 12 UTC
Jihovýchodní vítr 12 kt s nárazy do 23 kt
Viditelnost 10 km a více
Oblačno až skoro zataženo ve výšce 2000 ft
Dočasný
od 18 v 03 UTC do 18 v 09 UTC
Jihojihovýchodní vítr 17 kt s nárazy do 27 kt

TAF: URML 180200Z 1803/1812 14006G12MPS 9999 BKN020 TEMPO 1803/1809 15009G14MPS

Stav a předpovědi počasí z více než 4 000 letišť (zprávy METAR a TAF).

Červené a žluté tečky na mapě představují dostupné meteorologické stanice.

Když kurzor umístíte na tečku, zobrazí se název stanice.

Pak kliknutím zobrazíte stav a předpověď počasí.

Chcete-li změnit mapu, kliknutím na zelené tlačítko se znaménkem +mapu přiblížíte, kliknutím na zelené tlačítko se znaménkem – mapu oddálíte a kliknutím na zelené šipky přejdete na sousední mapy.


METAR-TAF: